Time;durP1;ratioP1;P1;durP2;ratioP2;P2;SDS_P1;SDS_P2;PMS_P1;PMS_P2;Temp;Humidity;BMP_temperature;BMP_pressure;BME280_temperature;BME280_humidity;BME280_pressure;Samples;Min_cycle;Max_cycle;Signal;HPM_P1;HPM_P2
2021/06/03 00:01:00;;;;;;;;;;;21.30;70.10;;;;;;10570192;28;20023;-65
2021/06/03 00:06:01;;;;;;;;;;;21.40;71.60;;;;;;10577639;28;19927;-63
2021/06/03 00:11:05;;;;;;;;;;;21.40;73.90;;;;;;10566678;28;19928;-63
2021/06/03 00:16:07;;;;;;;;;;;21.40;77.30;;;;;;10574235;28;19932;-63
2021/06/03 00:21:08;;;;;;;;;;;21.30;80.90;;;;;;10578352;28;20290;-63
2021/06/03 00:26:11;;;;;;;;;;;21.30;84.20;;;;;;10589850;27;20562;-62
2021/06/03 00:31:12;;;;;;;;;;;21.20;86.60;;;;;;10572015;28;19927;-64
2021/06/03 00:36:13;;;;;;;;;;;21.20;87.90;;;;;;10562084;28;19931;-63
2021/06/03 00:41:17;;;;;;;;;;;21.10;89.00;;;;;;10565720;28;19984;-63
2021/06/03 00:46:18;;;;;;;;;;;21.00;90.00;;;;;;10569346;28;20014;-62
2021/06/03 00:51:19;;;;;;;;;;;21.00;90.60;;;;;;10563707;28;19923;-63
2021/06/03 00:56:22;;;;;;;;;;;20.90;91.10;;;;;;10569301;27;20016;-64
2021/06/03 01:01:23;;;;;;;;;;;20.80;91.30;;;;;;10585094;27;19974;-63
2021/06/03 01:06:24;;;;;;;;;;;20.80;92.30;;;;;;10577981;27;20016;-62
2021/06/03 01:11:30;;;;;;;;;;;20.70;93.30;;;;;;10567103;28;20026;-62
2021/06/03 01:16:32;;;;;;;;;;;20.70;93.30;;;;;;10573051;28;21428;-62
2021/06/03 01:21:35;;;;;;;;;;;20.70;94.00;;;;;;10567083;28;20381;-62
2021/06/03 01:26:38;;;;;;;;;;;20.60;94.90;;;;;;10592659;27;20028;-62
2021/06/03 01:31:39;;;;;;;;;;;20.50;95.30;;;;;;10577078;28;19924;-62
2021/06/03 01:36:40;;;;;;;;;;;18.80;95.20;;;;;;10576917;28;19952;-65
2021/06/03 01:41:43;;;;;;;;;;;20.40;96.00;;;;;;10555864;28;19923;-62
2021/06/03 01:46:44;;;;;;;;;;;20.30;96.20;;;;;;10565220;28;20342;-63
2021/06/03 01:51:46;;;;;;;;;;;20.40;96.40;;;;;;10572879;28;19928;-61
2021/06/03 01:56:48;;;;;;;;;;;20.30;96.30;;;;;;10567699;28;19940;-61
2021/06/03 02:01:50;;;;;;;;;;;20.30;96.40;;;;;;10574057;28;19924;-61
2021/06/03 02:06:52;;;;;;;;;;;18.80;95.80;;;;;;10575217;28;19998;-62
2021/06/03 02:11:54;;;;;;;;;;;20.10;96.60;;;;;;10567766;28;20326;-62
2021/06/03 02:16:57;;;;;;;;;;;20.00;97.00;;;;;;10577731;28;20419;-62
2021/06/03 02:21:59;;;;;;;;;;;20.00;97.30;;;;;;10566392;28;20062;-62
2021/06/03 02:27:01;;;;;;;;;;;19.90;97.70;;;;;;10568460;28;19924;-63
2021/06/03 02:32:03;;;;;;;;;;;19.80;97.90;;;;;;10570642;28;20468;-63
2021/06/03 02:37:07;;;;;;;;;;;19.70;98.30;;;;;;10554187;28;19924;-61
2021/06/03 02:42:09;;;;;;;;;;;19.70;98.60;;;;;;10571823;28;20068;-62
2021/06/03 02:47:11;;;;;;;;;;;19.60;99.20;;;;;;10568283;28;20008;-61
2021/06/03 02:52:12;;;;;;;;;;;19.50;99.30;;;;;;10575360;28;19930;-62
2021/06/03 02:57:14;;;;;;;;;;;19.50;99.70;;;;;;10575490;28;20369;-61
2021/06/03 03:02:16;;;;;;;;;;;17.90;99.50;;;;;;10571414;28;19930;-61
2021/06/03 03:07:17;;;;;;;;;;;19.40;99.90;;;;;;10565250;28;20018;-61
2021/06/03 03:12:19;;;;;;;;;;;19.40;99.90;;;;;;10570360;28;20371;-61
2021/06/03 03:17:20;;;;;;;;;;;19.50;99.90;;;;;;10567273;28;20391;-61
2021/06/03 03:22:22;;;;;;;;;;;19.50;99.90;;;;;;10574673;28;19923;-61
2021/06/03 03:27:24;;;;;;;;;;;19.50;99.90;;;;;;10582388;28;20015;-62
2021/06/03 03:32:25;;;;;;;;;;;19.50;99.90;;;;;;10581280;28;19971;-60
2021/06/03 03:37:26;;;;;;;;;;;19.50;99.90;;;;;;10582526;28;19992;-61
2021/06/03 03:42:29;;;;;;;;;;;19.50;99.90;;;;;;10562426;28;19954;-63
2021/06/03 03:47:30;;;;;;;;;;;19.50;99.90;;;;;;10583891;28;20378;-63
2021/06/03 03:52:31;;;;;;;;;;;19.40;99.90;;;;;;10581955;28;19923;-61
2021/06/03 03:57:34;;;;;;;;;;;19.40;99.90;;;;;;10575885;28;19927;-62
2021/06/03 04:02:35;;;;;;;;;;;19.50;99.90;;;;;;10584955;27;19974;-62
2021/06/03 04:07:38;;;;;;;;;;;19.50;99.90;;;;;;10563536;27;20022;-60
2021/06/03 04:12:41;;;;;;;;;;;19.50;99.90;;;;;;10549548;28;20376;-61
2021/06/03 04:17:42;;;;;;;;;;;19.60;99.90;;;;;;10547059;28;20593;-63
2021/06/03 04:22:43;;;;;;;;;;;19.70;99.90;;;;;;10541450;28;20010;-62
2021/06/03 04:27:46;;;;;;;;;;;19.70;99.90;;;;;;10555587;28;19931;-62
2021/06/03 04:32:47;;;;;;;;;;;19.60;99.90;;;;;;10575529;28;19928;-62
2021/06/03 04:37:48;;;;;;;;;;;19.60;99.90;;;;;;10581326;28;19928;-62
2021/06/03 04:42:52;;;;;;;;;;;19.60;99.90;;;;;;10571429;28;20010;-63
2021/06/03 04:47:53;;;;;;;;;;;19.50;99.90;;;;;;10566849;28;20015;-62
2021/06/03 04:52:55;;;;;;;;;;;17.90;99.90;;;;;;10553038;28;19924;-62
2021/06/03 04:57:58;;;;;;;;;;;19.70;99.90;;;;;;10568067;27;19939;-61
2021/06/03 05:03:00;;;;;;;;;;;20.40;99.90;;;;;;10563520;28;20010;-62
2021/06/03 05:08:01;;;;;;;;;;;21.20;97.40;;;;;;10557022;28;19932;-62
2021/06/03 05:13:05;;;;;;;;;;;22.10;96.80;;;;;;10569501;28;19942;-61
2021/06/03 05:18:07;;;;;;;;;;;24.90;87.10;;;;;;10566031;28;19924;-62
2021/06/03 05:23:08;;;;;;;;;;;23.50;90.60;;;;;;10563798;28;20455;-62
2021/06/03 05:28:10;;;;;;;;;;;26.10;82.10;;;;;;10554885;28;19972;-62
2021/06/03 05:33:11;;;;;;;;;;;29.00;66.40;;;;;;10563044;28;19927;-63
2021/06/03 05:38:13;;;;;;;;;;;30.40;58.30;;;;;;10568468;28;19931;-63
2021/06/03 05:43:15;;;;;;;;;;;31.20;54.10;;;;;;10564807;28;20424;-62
2021/06/03 05:48:16;;;;;;;;;;;31.90;52.20;;;;;;10558454;28;20356;-63
2021/06/03 05:53:18;;;;;;;;;;;32.50;49.60;;;;;;10562240;28;19981;-63
2021/06/03 05:58:20;;;;;;;;;;;33.40;48.10;;;;;;10567401;28;19938;-62
2021/06/03 06:03:28;;;;;;;;;;;34.50;46.60;;;;;;10557106;28;19931;-63
2021/06/03 06:08:29;;;;;;;;;;;35.30;44.80;;;;;;10567434;28;19946;-63
2021/06/03 06:13:31;;;;;;;;;;;36.50;43.30;;;;;;10562174;27;19928;-64
2021/06/03 06:18:34;;;;;;;;;;;35.70;42.60;;;;;;10546684;28;19928;-62
2021/06/03 06:23:35;;;;;;;;;;;34.10;45.10;;;;;;10560930;28;19924;-62
2021/06/03 06:28:38;;;;;;;;;;;35.20;44.10;;;;;;10562204;28;20389;-62
2021/06/03 06:33:39;;;;;;;;;;;35.20;42.50;;;;;;10574873;28;19934;-61
2021/06/03 06:38:41;;;;;;;;;;;36.20;45.30;;;;;;10563909;28;19930;-61
2021/06/03 06:43:44;;;;;;;;;;;33.70;44.90;;;;;;10556828;28;19975;-62
2021/06/03 06:48:45;;;;;;;;;;;34.40;44.20;;;;;;10540584;28;19924;-61
2021/06/03 06:53:46;;;;;;;;;;;33.70;44.70;;;;;;10579790;28;20547;-60
2021/06/03 06:58:48;;;;;;;;;;;31.70;48.40;;;;;;10574536;28;19924;-62
2021/06/03 07:03:51;;;;;;;;;;;31.40;49.50;;;;;;10570025;27;20015;-61
2021/06/03 07:08:52;;;;;;;;;;;32.60;47.50;;;;;;10590448;27;19935;-62
2021/06/03 07:13:54;;;;;;;;;;;32.80;47.40;;;;;;10578240;27;19924;-62
2021/06/03 07:18:55;;;;;;;;;;;32.80;47.40;;;;;;10571293;28;19924;-62
2021/06/03 07:23:57;;;;;;;;;;;34.50;44.50;;;;;;10579141;28;19931;-62
2021/06/03 07:29:03;;;;;;;;;;;34.80;43.80;;;;;;10573074;28;19971;-62
2021/06/03 07:34:05;;;;;;;;;;;36.10;42.20;;;;;;10578805;28;19924;-61
2021/06/03 07:39:07;;;;;;;;;;;37.10;40.40;;;;;;10578969;28;19928;-62
2021/06/03 07:44:09;;;;;;;;;;;37.80;40.00;;;;;;10580373;28;19970;-62
2021/06/03 07:49:13;;;;;;;;;;;38.00;39.40;;;;;;10576300;27;19924;-63
2021/06/03 07:54:14;;;;;;;;;;;38.00;39.10;;;;;;10561206;27;19924;-64
2021/06/03 07:59:17;;;;;;;;;;;37.40;40.00;;;;;;10573866;28;20431;-64
2021/06/03 08:04:20;;;;;;;;;;;37.60;40.00;;;;;;10562267;28;19930;-61
2021/06/03 08:09:21;;;;;;;;;;;37.70;40.30;;;;;;10565698;28;19924;-65
2021/06/03 08:14:23;;;;;;;;;;;36.00;41.30;;;;;;10552651;28;19928;-64
2021/06/03 08:19:24;;;;;;;;;;;35.00;42.50;;;;;;10576171;28;20356;-62
2021/06/03 08:24:26;;;;;;;;;;;34.10;43.80;;;;;;10575040;27;19965;-62
2021/06/03 08:29:28;;;;;;;;;;;33.40;44.20;;;;;;10588082;27;19924;-62
2021/06/03 08:34:29;;;;;;;;;;;32.80;44.40;;;;;;10574021;28;20147;-62
2021/06/03 08:39:30;;;;;;;;;;;32.90;44.40;;;;;;10581294;28;19924;-64
2021/06/03 08:44:33;;;;;;;;;;;33.00;43.50;;;;;;10577314;27;19924;-65
2021/06/03 08:49:35;;;;;;;;;;;33.60;43.40;;;;;;10552142;27;19966;-62
2021/06/03 08:54:39;;;;;;;;;;;34.40;43.00;;;;;;10543904;28;19999;-62
2021/06/03 08:59:42;;;;;;;;;;;34.70;43.00;;;;;;10568248;28;19923;-64
2021/06/03 09:04:43;;;;;;;;;;;35.00;42.00;;;;;;10575763;28;20023;-63
2021/06/03 09:09:44;;;;;;;;;;;35.40;41.50;;;;;;10562998;28;20365;-64
2021/06/03 09:14:46;;;;;;;;;;;35.40;40.80;;;;;;10557000;28;19928;-63
2021/06/03 09:19:51;;;;;;;;;;;34.80;41.00;;;;;;10558845;28;19928;-66
2021/06/03 09:24:52;;;;;;;;;;;34.30;40.80;;;;;;10571563;27;19924;-65
2021/06/03 09:30:00;;;;;;;;;;;34.20;40.70;;;;;;10577785;28;19984;-67
2021/06/03 09:35:01;;;;;;;;;;;34.30;40.50;;;;;;10557208;28;19931;-67
2021/06/03 09:40:03;;;;;;;;;;;34.40;40.20;;;;;;10543415;28;19928;-67
2021/06/03 09:45:06;;;;;;;;;;;34.50;40.00;;;;;;10555311;28;19930;-66
2021/06/03 09:50:09;;;;;;;;;;;33.90;40.40;;;;;;10570584;27;20016;-66
2021/06/03 09:55:12;;;;;;;;;;;33.10;41.00;;;;;;10551436;28;19931;-64
2021/06/03 10:00:16;;;;;;;;;;;32.50;41.80;;;;;;10547610;28;19924;-65
2021/06/03 10:05:19;;;;;;;;;;;33.10;41.80;;;;;;10557144;28;22428;-63
2021/06/03 10:10:20;;;;;;;;;;;34.40;40.80;;;;;;10549255;28;19934;-68
2021/06/03 10:15:42;;;;;;;;;;;35.00;39.30;;;;;;10572728;27;19975;-67
2021/06/03 10:20:45;;;;;;;;;;;35.20;39.30;;;;;;10551500;28;19941;-67
2021/06/03 10:25:49;;;;;;;;;;;34.90;39.20;;;;;;10586505;27;19923;-66
2021/06/03 10:30:52;;;;;;;;;;;34.50;39.40;;;;;;10550815;28;19938;-68
2021/06/03 10:35:56;;;;;;;;;;;34.30;39.50;;;;;;10573845;28;20382;-73
2021/06/03 10:40:58;;;;;;;;;;;34.90;39.60;;;;;;10576331;28;19928;-64
2021/06/03 10:45:59;;;;;;;;;;;35.10;38.30;;;;;;10552980;28;19928;-62
2021/06/03 10:51:04;;;;;;;;;;;34.60;39.10;;;;;;10571729;28;19967;-62
2021/06/03 10:56:08;;;;;;;;;;;34.30;39.30;;;;;;10554702;28;19930;-64
2021/06/03 11:01:11;;;;;;;;;;;34.10;39.50;;;;;;10559721;28;19931;-64
2021/06/03 11:06:15;;;;;;;;;;;34.20;39.90;;;;;;10566348;28;19954;-64
2021/06/03 11:11:24;;;;;;;;;;;34.10;39.60;;;;;;10569853;28;20022;-65
2021/06/03 11:16:25;;;;;;;;;;;34.00;39.80;;;;;;10565702;28;20272;-65
2021/06/03 11:21:46;;;;;;;;;;;33.00;40.00;;;;;;10554432;28;19945;-64
2021/06/03 11:26:55;;;;;;;;;;;33.70;40.90;;;;;;10565603;28;20006;-65
2021/06/03 11:32:11;;;;;;;;;;;33.90;41.30;;;;;;10570823;28;19927;-65
2021/06/03 11:37:13;;;;;;;;;;;33.80;41.20;;;;;;10555133;28;20018;-67
2021/06/03 11:42:20;;;;;;;;;;;34.10;41.40;;;;;;10560007;28;19928;-66
2021/06/03 11:47:21;;;;;;;;;;;34.20;41.40;;;;;;10573455;27;19930;-66
2021/06/03 11:52:23;;;;;;;;;;;33.90;42.00;;;;;;10569610;27;20010;-67
2021/06/03 11:57:26;;;;;;;;;;;33.90;42.30;;;;;;10560352;27;19943;-67
2021/06/03 12:02:28;;;;;;;;;;;33.60;42.40;;;;;;10548981;28;19935;-67
2021/06/03 12:07:39;;;;;;;;;;;33.40;43.30;;;;;;10573312;27;19927;-68
2021/06/03 12:12:42;;;;;;;;;;;33.20;43.20;;;;;;10585166;27;19928;-67
2021/06/03 12:17:43;;;;;;;;;;;32.80;43.50;;;;;;10568953;28;19924;-67
2021/06/03 12:22:44;;;;;;;;;;;31.90;44.60;;;;;;10579006;28;19994;-66
2021/06/03 12:27:47;;;;;;;;;;;31.60;45.10;;;;;;10571813;27;20002;-68
2021/06/03 12:32:59;;;;;;;;;;;32.10;44.50;;;;;;10578446;28;19930;-66
2021/06/03 12:38:00;;;;;;;;;;;32.10;44.00;;;;;;10574212;28;20026;-67
2021/06/03 12:43:05;;;;;;;;;;;32.00;44.10;;;;;;10568095;28;20051;-66
2021/06/03 12:48:07;;;;;;;;;;;32.30;43.40;;;;;;10576108;28;20002;-65
2021/06/03 12:53:09;;;;;;;;;;;32.20;43.10;;;;;;10568506;27;19927;-66
2021/06/03 12:58:12;;;;;;;;;;;32.40;42.80;;;;;;10572336;28;19950;-66
2021/06/03 13:03:15;;;;;;;;;;;32.50;42.20;;;;;;10558409;28;19963;-66
2021/06/03 13:08:17;;;;;;;;;;;31.90;42.60;;;;;;10563299;28;20125;-66
2021/06/03 13:13:22;;;;;;;;;;;31.40;44.00;;;;;;10568593;28;19931;-66
2021/06/03 13:18:25;;;;;;;;;;;31.00;44.50;;;;;;10563329;27;19971;-66
2021/06/03 13:23:27;;;;;;;;;;;30.30;45.80;;;;;;10564366;28;19923;-65
2021/06/03 13:28:30;;;;;;;;;;;30.40;46.70;;;;;;10552146;28;19932;-66
2021/06/03 13:33:31;;;;;;;;;;;30.40;46.10;;;;;;10548380;28;19939;-66
2021/06/03 13:38:32;;;;;;;;;;;30.70;45.40;;;;;;10547785;28;19932;-67
2021/06/03 13:43:35;;;;;;;;;;;30.80;45.20;;;;;;10547634;27;19950;-67
2021/06/03 13:48:38;;;;;;;;;;;30.70;45.30;;;;;;10556222;27;19932;-66
2021/06/03 13:53:41;;;;;;;;;;;30.70;45.00;;;;;;10568103;27;19931;-67
2021/06/03 13:58:45;;;;;;;;;;;30.50;44.80;;;;;;10560809;28;19928;-67
2021/06/03 14:03:47;;;;;;;;;;;30.50;45.80;;;;;;10567777;28;19950;-66
2021/06/03 14:08:48;;;;;;;;;;;30.30;46.20;;;;;;10559952;28;19963;-66
2021/06/03 14:13:56;;;;;;;;;;;30.00;46.30;;;;;;10561189;28;20026;-67
2021/06/03 14:19:01;;;;;;;;;;;29.90;47.30;;;;;;10573191;28;19927;-67
2021/06/03 14:24:03;;;;;;;;;;;30.00;48.00;;;;;;10569085;28;19974;-66
2021/06/03 14:29:05;;;;;;;;;;;29.80;48.20;;;;;;10575596;27;19963;-65
2021/06/03 14:34:06;;;;;;;;;;;29.70;48.40;;;;;;10576394;28;19928;-66
2021/06/03 14:39:08;;;;;;;;;;;29.60;48.60;;;;;;10567294;28;19924;-66
2021/06/03 14:44:10;;;;;;;;;;;29.30;49.40;;;;;;10572533;28;20442;-65
2021/06/03 14:49:11;;;;;;;;;;;29.30;49.00;;;;;;10562272;28;19971;-66
2021/06/03 14:54:13;;;;;;;;;;;29.00;49.80;;;;;;10572136;28;19924;-67
2021/06/03 14:59:15;;;;;;;;;;;29.00;49.70;;;;;;10557333;28;20386;-68
2021/06/03 15:04:16;;;;;;;;;;;28.80;49.50;;;;;;10564528;28;20769;-65
2021/06/03 15:09:17;;;;;;;;;;;28.90;50.20;;;;;;10575005;28;19927;-66
2021/06/03 15:14:20;;;;;;;;;;;28.50;50.50;;;;;;10559664;28;20375;-67
2021/06/03 15:19:21;;;;;;;;;;;28.30;51.00;;;;;;10563765;27;20023;-66
2021/06/03 15:24:22;;;;;;;;;;;28.40;50.40;;;;;;10579078;27;20387;-71
2021/06/03 15:29:24;;;;;;;;;;;28.20;50.90;;;;;;10585669;27;19924;-67
2021/06/03 15:34:25;;;;;;;;;;;28.00;51.00;;;;;;10567917;28;20278;-67
2021/06/03 15:39:27;;;;;;;;;;;28.20;50.90;;;;;;10569956;28;20428;-69
2021/06/03 15:44:29;;;;;;;;;;;28.40;50.70;;;;;;10552346;28;19973;-65
2021/06/03 15:49:31;;;;;;;;;;;28.20;51.00;;;;;;10554831;27;19924;-65
2021/06/03 15:54:33;;;;;;;;;;;27.80;51.50;;;;;;10564567;27;19961;-68
2021/06/03 15:59:36;;;;;;;;;;;27.60;50.90;;;;;;10562358;27;19970;-66
2021/06/03 16:04:38;;;;;;;;;;;27.10;50.90;;;;;;10565720;28;19931;-66
2021/06/03 16:09:39;;;;;;;;;;;27.20;51.50;;;;;;10574867;28;20007;-67
2021/06/03 16:14:42;;;;;;;;;;;27.00;51.30;;;;;;10567262;28;20409;-68
2021/06/03 16:19:43;;;;;;;;;;;26.80;51.70;;;;;;10557882;28;19928;-66
2021/06/03 16:24:44;;;;;;;;;;;26.90;50.80;;;;;;10573933;28;19927;-65
2021/06/03 16:29:47;;;;;;;;;;;26.60;50.80;;;;;;10576668;28;20745;-68
2021/06/03 16:34:48;;;;;;;;;;;26.40;50.80;;;;;;10570325;28;19924;-68
2021/06/03 16:39:49;;;;;;;;;;;26.10;51.30;;;;;;10564668;28;19928;-67
2021/06/03 16:44:51;;;;;;;;;;;25.80;51.70;;;;;;10577461;27;19927;-65
2021/06/03 16:49:52;;;;;;;;;;;25.50;52.40;;;;;;10583631;27;19923;-67
2021/06/03 16:54:53;;;;;;;;;;;25.00;53.00;;;;;;10564311;28;19928;-67
2021/06/03 16:59:56;;;;;;;;;;;24.60;54.60;;;;;;10573188;28;19933;-67
2021/06/03 17:04:57;;;;;;;;;;;24.40;55.60;;;;;;10573824;28;19927;-66
2021/06/03 17:09:58;;;;;;;;;;;24.30;55.90;;;;;;10572541;28;20364;-67
2021/06/03 17:15:01;;;;;;;;;;;24.30;56.10;;;;;;10574293;28;19927;-67
2021/06/03 17:20:02;;;;;;;;;;;24.20;56.30;;;;;;10574540;28;20391;-65
2021/06/03 17:25:05;;;;;;;;;;;24.10;56.70;;;;;;10579818;27;20399;-66
2021/06/03 17:30:09;;;;;;;;;;;23.80;57.30;;;;;;10577476;28;19968;-66
2021/06/03 17:35:10;;;;;;;;;;;23.60;58.20;;;;;;10566619;28;19924;-67
2021/06/03 17:40:13;;;;;;;;;;;23.20;59.30;;;;;;10574977;28;19932;-67
2021/06/03 17:45:17;;;;;;;;;;;23.10;59.80;;;;;;10565289;28;19924;-71
2021/06/03 17:50:20;;;;;;;;;;;23.00;60.70;;;;;;10574366;27;20002;-65
2021/06/03 17:55:22;;;;;;;;;;;22.70;61.80;;;;;;10569378;28;20375;-66
2021/06/03 18:00:27;;;;;;;;;;;22.70;62.70;;;;;;10571393;28;19976;-65
2021/06/03 18:05:29;;;;;;;;;;;22.40;63.40;;;;;;10548931;28;19924;-66
2021/06/03 18:10:30;;;;;;;;;;;21.90;63.80;;;;;;10567280;28;19928;-65
2021/06/03 18:15:33;;;;;;;;;;;22.30;64.60;;;;;;10552531;28;19928;-63
2021/06/03 18:20:35;;;;;;;;;;;22.20;64.90;;;;;;10566263;28;20454;-65
2021/06/03 18:25:37;;;;;;;;;;;21.90;65.70;;;;;;10564976;28;19932;-65
2021/06/03 18:30:40;;;;;;;;;;;21.60;67.10;;;;;;10544009;28;20382;-65
2021/06/03 18:35:41;;;;;;;;;;;21.30;69.30;;;;;;10571502;28;19934;-65
2021/06/03 18:40:43;;;;;;;;;;;21.20;70.20;;;;;;10558107;28;19928;-65
2021/06/03 18:45:45;;;;;;;;;;;21.30;70.70;;;;;;10563986;28;19936;-66
2021/06/03 18:50:47;;;;;;;;;;;21.50;70.60;;;;;;10573516;27;19950;-66
2021/06/03 18:55:48;;;;;;;;;;;21.60;70.40;;;;;;10574362;28;19928;-68
2021/06/03 19:00:54;;;;;;;;;;;21.70;70.40;;;;;;10566239;28;19960;-67
2021/06/03 19:05:55;;;;;;;;;;;21.70;71.40;;;;;;10554571;28;19931;-66
2021/06/03 19:10:57;;;;;;;;;;;21.60;71.90;;;;;;10558529;27;19934;-66
2021/06/03 19:15:59;;;;;;;;;;;21.60;73.30;;;;;;10558969;28;19930;-66
2021/06/03 19:21:01;;;;;;;;;;;21.40;73.90;;;;;;10558687;28;19936;-66
2021/06/03 19:26:03;;;;;;;;;;;21.30;75.00;;;;;;10569704;28;20011;-66
2021/06/03 19:31:05;;;;;;;;;;;21.00;75.90;;;;;;10569706;28;19935;-67
2021/06/03 19:36:07;;;;;;;;;;;21.00;76.80;;;;;;10563730;28;19928;-66
2021/06/03 19:41:08;;;;;;;;;;;20.60;79.30;;;;;;10566202;28;19924;-66
2021/06/03 19:46:11;;;;;;;;;;;20.30;81.50;;;;;;10557395;28;19924;-66
2021/06/03 19:51:12;;;;;;;;;;;20.20;82.80;;;;;;10566000;27;19953;-66
2021/06/03 19:56:13;;;;;;;;;;;20.20;83.30;;;;;;10553538;28;19934;-66
2021/06/03 20:01:19;;;;;;;;;;;20.00;84.60;;;;;;10553890;27;19923;-66
2021/06/03 20:06:21;;;;;;;;;;;19.70;85.90;;;;;;10568303;27;20015;-65
2021/06/03 20:11:22;;;;;;;;;;;19.70;86.50;;;;;;10558062;27;19928;-64
2021/06/03 20:16:24;;;;;;;;;;;19.60;86.70;;;;;;10552904;28;19924;-66
2021/06/03 20:21:25;;;;;;;;;;;19.50;87.60;;;;;;10555046;27;20591;-65
2021/06/03 20:26:27;;;;;;;;;;;19.30;88.90;;;;;;10575501;27;19928;-65
2021/06/03 20:31:29;;;;;;;;;;;19.30;89.50;;;;;;10576263;28;20048;-65
2021/06/03 20:36:30;;;;;;;;;;;19.20;89.90;;;;;;10574369;28;19959;-65
2021/06/03 20:41:32;;;;;;;;;;;19.20;90.20;;;;;;10567211;28;19967;-65
2021/06/03 20:46:43;;;;;;;;;;;19.10;90.30;;;;;;10572333;28;20038;-66
2021/06/03 20:51:45;;;;;;;;;;;19.00;90.50;;;;;;10570385;27;19931;-66
2021/06/03 20:56:47;;;;;;;;;;;19.00;90.80;;;;;;10579302;28;19928;-65
2021/06/03 21:01:49;;;;;;;;;;;19.00;91.10;;;;;;10580044;28;19975;-66
2021/06/03 21:06:50;;;;;;;;;;;19.00;91.00;;;;;;10581406;28;19923;-66
2021/06/03 21:11:52;;;;;;;;;;;19.20;90.80;;;;;;10577390;28;20432;-65
2021/06/03 21:16:54;;;;;;;;;;;19.10;91.10;;;;;;10570498;28;20036;-64
2021/06/03 21:21:55;;;;;;;;;;;19.00;91.10;;;;;;10569546;28;19984;-66
2021/06/03 21:26:56;;;;;;;;;;;19.00;91.00;;;;;;10577225;28;19979;-66
2021/06/03 21:31:59;;;;;;;;;;;18.90;91.20;;;;;;10568531;28;19975;-66
2021/06/03 21:37:00;;;;;;;;;;;19.00;91.30;;;;;;10566577;28;20011;-66
2021/06/03 21:42:01;;;;;;;;;;;19.00;91.40;;;;;;10575104;28;20006;-65
2021/06/03 21:47:04;;;;;;;;;;;18.90;91.50;;;;;;10561546;28;19924;-64
2021/06/03 21:52:06;;;;;;;;;;;18.90;91.60;;;;;;10578393;28;19924;-65
2021/06/03 21:57:07;;;;;;;;;;;18.90;91.60;;;;;;10577907;28;20014;-65
2021/06/03 22:02:10;;;;;;;;;;;18.90;91.70;;;;;;10566378;28;20001;-65
2021/06/03 22:07:11;;;;;;;;;;;18.80;91.90;;;;;;10573483;27;20022;-64
2021/06/03 22:12:12;;;;;;;;;;;18.60;92.30;;;;;;10563646;28;19931;-65
2021/06/03 22:17:15;;;;;;;;;;;18.60;92.60;;;;;;10570183;28;19930;-64
2021/06/03 22:22:16;;;;;;;;;;;18.40;92.90;;;;;;10565897;28;20004;-64
2021/06/03 22:27:17;;;;;;;;;;;18.20;93.50;;;;;;10567401;28;19975;-64
2021/06/03 22:32:19;;;;;;;;;;;18.10;93.60;;;;;;10575486;28;20019;-64
2021/06/03 22:37:20;;;;;;;;;;;18.00;93.70;;;;;;10560170;28;20015;-64
2021/06/03 22:42:22;;;;;;;;;;;17.80;94.20;;;;;;10552452;28;20328;-65
2021/06/03 22:47:24;;;;;;;;;;;17.80;94.20;;;;;;10557020;28;19924;-64
2021/06/03 22:52:25;;;;;;;;;;;17.80;94.30;;;;;;10574129;28;19931;-66
2021/06/03 22:57:26;;;;;;;;;;;17.50;94.50;;;;;;10557589;28;19996;-65
2021/06/03 23:02:31;;;;;;;;;;;17.30;95.10;;;;;;10573542;28;19955;-65
2021/06/03 23:07:32;;;;;;;;;;;15.80;94.80;;;;;;10563353;28;19938;-66
2021/06/03 23:12:33;;;;;;;;;;;17.30;95.10;;;;;;10568036;28;20378;-66
2021/06/03 23:17:35;;;;;;;;;;;17.20;95.00;;;;;;10566175;28;20287;-66
2021/06/03 23:22:37;;;;;;;;;;;16.90;95.60;;;;;;10565135;28;20035;-65
2021/06/03 23:27:38;;;;;;;;;;;16.70;96.00;;;;;;10570952;28;20014;-66
2021/06/03 23:32:40;;;;;;;;;;;16.40;95.90;;;;;;10569500;28;19930;-65
2021/06/03 23:37:42;;;;;;;;;;;16.70;95.90;;;;;;10576710;28;20014;-65
2021/06/03 23:42:43;;;;;;;;;;;16.60;95.80;;;;;;10580627;28;19923;-64
2021/06/03 23:47:46;;;;;;;;;;;15.70;95.90;;;;;;10585724;27;19970;-65
2021/06/03 23:52:48;;;;;;;;;;;16.60;96.30;;;;;;10567541;28;20656;-65
2021/06/03 23:57:50;;;;;;;;;;;16.60;95.90;;;;;;10579522;28;20014;-64
